Time;durP1;ratioP1;P1;durP2;ratioP2;P2;SDS_P1;SDS_P2;PMS_P1;PMS_P2;Temp;Humidity;BMP_temperature;BMP_pressure;BME280_temperature;BME280_humidity;BME280_pressure;Samples;Min_cycle;Max_cycle;Signal;HPM_P1;HPM_P2
2023/09/07 00:00:17;;;;;;;0.97;0.97;;;;;16.30;96411.00;;;;5016735;28;20605;-64
2023/09/07 00:02:44;;;;;;;1.17;1.17;;;;;16.20;96423.00;;;;5017087;28;20209;-64
2023/09/07 00:05:13;;;;;;;1.03;1.03;;;;;16.10;96417.00;;;;5016322;28;20207;-64
2023/09/07 00:07:41;;;;;;;0.67;0.67;;;;;16.20;96411.00;;;;5016366;28;20190;-64
2023/09/07 00:10:09;;;;;;;0.93;0.93;;;;;16.10;96415.00;;;;5016349;28;20213;-64
2023/09/07 00:12:39;;;;;;;1.60;1.50;;;;;16.20;96420.00;;;;5016431;28;20225;-63
2023/09/07 00:15:08;;;;;;;1.10;1.03;;;;;16.10;96409.00;;;;5016205;28;20193;-64
2023/09/07 00:17:35;;;;;;;1.57;1.47;;;;;16.00;96413.00;;;;5016228;28;20236;-64
2023/09/07 00:20:09;;;;;;;1.17;1.17;;;;;15.80;96404.00;;;;5015935;28;20697;-64
2023/09/07 00:22:37;;;;;;;1.07;1.07;;;;;15.90;96415.00;;;;5016596;28;20568;-64
2023/09/07 00:25:06;;;;;;;0.90;0.90;;;;;15.70;96414.00;;;;5016231;28;20194;-64
2023/09/07 00:27:34;;;;;;;5.80;1.87;;;;;15.80;96409.00;;;;5016401;28;20217;-64
2023/09/07 00:30:02;;;;;;;0.80;0.80;;;;;15.60;96419.00;;;;5016326;28;20260;-64
2023/09/07 00:32:29;;;;;;;1.33;1.30;;;;;15.60;96412.00;;;;5015930;28;20221;-64
2023/09/07 00:34:56;;;;;;;0.80;0.80;;;;;15.50;96408.00;;;;5016089;28;20193;-65
2023/09/07 00:37:23;;;;;;;0.90;0.90;;;;;15.40;96411.00;;;;5015988;28;20545;-64
2023/09/07 00:39:52;;;;;;;0.80;0.80;;;;;15.50;96405.00;;;;5015712;28;20204;-64
2023/09/07 00:42:21;;;;;;;1.33;1.33;;;;;15.50;96406.00;;;;5015725;28;20189;-65
2023/09/07 00:44:48;;;;;;;1.13;1.13;;;;;15.70;96403.00;;;;5015842;28;20199;-64
2023/09/07 00:47:16;;;;;;;1.17;1.17;;;;;15.60;96399.00;;;;5015797;28;20708;-64
2023/09/07 00:49:44;;;;;;;0.87;0.87;;;;;15.40;96400.00;;;;5015733;28;20193;-64
2023/09/07 00:52:11;;;;;;;1.20;1.20;;;;;15.40;96404.00;;;;5015688;28;20579;-63
2023/09/07 00:54:40;;;;;;;1.40;1.30;;;;;15.50;96403.00;;;;5015478;28;20691;-64
2023/09/07 00:57:08;;;;;;;0.80;0.80;;;;;15.40;96397.00;;;;5015551;28;20229;-64
2023/09/07 00:59:37;;;;;;;1.10;1.10;;;;;15.30;96394.00;;;;5015379;28;20197;-64
2023/09/07 01:02:05;;;;;;;0.90;0.90;;;;;15.30;96390.00;;;;5015404;28;20189;-64
2023/09/07 01:04:32;;;;;;;0.70;0.70;;;;;15.30;96392.00;;;;5015233;28;20201;-65
2023/09/07 01:07:05;;;;;;;0.77;0.77;;;;;15.30;96406.00;;;;5015291;28;20280;-64
2023/09/07 01:09:35;;;;;;;0.90;0.90;;;;;15.30;96397.00;;;;5015353;28;20607;-64
2023/09/07 01:12:03;;;;;;;1.17;1.07;;;;;15.20;96394.00;;;;5015338;28;20227;-64
2023/09/07 01:14:30;;;;;;;0.60;0.60;;;;;15.20;96404.00;;;;5015129;28;20205;-64
2023/09/07 01:16:59;;;;;;;0.90;0.90;;;;;15.10;96394.00;;;;5015145;28;20194;-63
2023/09/07 01:19:27;;;;;;;1.43;1.33;;;;;15.00;96401.00;;;;5015148;28;20201;-64
2023/09/07 01:21:56;;;;;;;1.10;1.10;;;;;15.00;96392.00;;;;5014960;28;20213;-64
2023/09/07 01:24:24;;;;;;;7.63;1.57;;;;;15.00;96387.00;;;;5015282;28;20189;-64
2023/09/07 01:26:52;;;;;;;0.60;0.60;;;;;14.70;96395.00;;;;5015141;28;20197;-64
2023/09/07 01:29:20;;;;;;;1.10;1.10;;;;;14.80;96385.00;;;;5014919;28;20209;-64
2023/09/07 01:31:47;;;;;;;0.80;0.80;;;;;14.80;96392.00;;;;5014750;28;20293;-64
2023/09/07 01:34:15;;;;;;;3.13;2.03;;;;;14.90;96396.00;;;;5014577;28;20198;-64
2023/09/07 01:36:42;;;;;;;0.80;0.80;;;;;14.90;96389.00;;;;5015120;28;20317;-64
2023/09/07 01:39:11;;;;;;;1.17;1.10;;;;;14.80;96389.00;;;;5014617;28;20194;-64
2023/09/07 01:41:38;;;;;;;1.07;1.07;;;;;14.70;96396.00;;;;5014519;28;20209;-65
2023/09/07 01:44:06;;;;;;;13.23;2.20;;;;;14.70;96388.00;;;;5014633;28;20553;-65
2023/09/07 01:46:35;;;;;;;1.50;1.40;;;;;14.70;96389.00;;;;5014361;28;20197;-64
2023/09/07 01:49:03;;;;;;;0.90;0.90;;;;;14.60;96394.00;;;;5014984;28;20591;-64
2023/09/07 01:51:30;;;;;;;1.00;1.00;;;;;14.70;96385.00;;;;5014784;28;20580;-64
2023/09/07 01:53:57;;;;;;;1.13;1.03;;;;;14.70;96385.00;;;;5013822;28;20208;-64
2023/09/07 01:56:26;;;;;;;1.50;1.40;;;;;14.60;96386.00;;;;5014462;28;20210;-64
2023/09/07 01:58:54;;;;;;;2.47;1.47;;;;;14.50;96385.00;;;;5014491;28;20615;-65
2023/09/07 02:01:22;;;;;;;1.20;1.20;;;;;14.40;96387.00;;;;5014500;28;20214;-65
2023/09/07 02:03:50;;;;;;;0.93;0.90;;;;;14.40;96389.00;;;;5015059;28;20193;-64
2023/09/07 02:06:18;;;;;;;0.63;0.63;;;;;14.40;96389.00;;;;5014122;28;20186;-64
2023/09/07 02:08:45;;;;;;;0.67;0.67;;;;;14.40;96390.00;;;;5014449;28;20201;-64
2023/09/07 02:11:12;;;;;;;6.17;1.40;;;;;14.40;96377.00;;;;5014540;28;20221;-64
2023/09/07 02:13:43;;;;;;;1.00;1.00;;;;;14.40;96384.00;;;;5014193;28;20603;-64
2023/09/07 02:16:11;;;;;;;1.87;1.70;;;;;14.40;96380.00;;;;5014044;28;20197;-63
2023/09/07 02:18:43;;;;;;;1.23;1.13;;;;;14.30;96386.00;;;;5013922;28;20204;-64
2023/09/07 02:21:11;;;;;;;0.87;0.87;;;;;14.20;96385.00;;;;5014027;28;20213;-64
2023/09/07 02:23:38;;;;;;;1.67;1.60;;;;;14.30;96381.00;;;;5013754;28;20247;-64
2023/09/07 02:26:05;;;;;;;1.00;1.00;;;;;14.20;96389.00;;;;5013828;28;20193;-64
2023/09/07 02:28:33;;;;;;;1.77;1.67;;;;;14.20;96383.00;;;;5014030;28;20208;-63
2023/09/07 02:31:05;;;;;;;1.60;1.50;;;;;14.30;96378.00;;;;5013855;28;20214;-64
2023/09/07 02:33:33;;;;;;;0.90;0.90;;;;;14.40;96380.00;;;;5012643;28;20201;-64
2023/09/07 02:36:01;;;;;;;0.80;0.80;;;;;14.30;96376.00;;;;5014057;28;20202;-64
2023/09/07 02:38:28;;;;;;;1.17;1.13;;;;;14.30;96377.00;;;;5013809;28;20190;-64
2023/09/07 02:40:57;;;;;;;1.10;1.10;;;;;14.30;96380.00;;;;5013779;28;20225;-63
2023/09/07 02:43:24;;;;;;;2.37;1.30;;;;;14.20;96382.00;;;;5013776;28;20189;-64
2023/09/07 02:45:52;;;;;;;1.00;1.00;;;;;14.20;96379.00;;;;5013588;28;20657;-63
2023/09/07 02:48:21;;;;;;;0.90;0.90;;;;;14.30;96383.00;;;;5013596;28;20269;-64
2023/09/07 02:50:50;;;;;;;0.67;0.67;;;;;14.40;96377.00;;;;5013404;28;20209;-64
2023/09/07 02:53:18;;;;;;;10.57;1.30;;;;;14.30;96383.00;;;;5013586;28;20569;-64
2023/09/07 02:55:45;;;;;;;1.33;1.33;;;;;14.30;96377.00;;;;5013532;28;20730;-64
2023/09/07 02:58:13;;;;;;;1.07;1.03;;;;;14.30;96382.00;;;;5013487;28;20198;-63
2023/09/07 03:00:44;;;;;;;1.07;1.07;;;;;14.20;96371.00;;;;5013444;28;20213;-63
2023/09/07 03:03:12;;;;;;;0.90;0.90;;;;;14.20;96380.00;;;;5013477;28;20213;-63
2023/09/07 03:05:42;;;;;;;1.10;1.10;;;;;14.30;96374.00;;;;5014538;28;20317;-64
2023/09/07 03:08:10;;;;;;;4.23;0.97;;;;;14.30;96382.00;;;;5017397;28;20201;-64
2023/09/07 03:10:39;;;;;;;1.03;1.03;;;;;14.10;96373.00;;;;5017396;28;20217;-64
2023/09/07 03:13:06;;;;;;;1.30;1.30;;;;;14.10;96371.00;;;;5015809;28;20217;-64
2023/09/07 03:15:34;;;;;;;0.83;0.83;;;;;14.10;96378.00;;;;5017167;28;20198;-64
2023/09/07 03:18:01;;;;;;;2.00;1.90;;;;;14.10;96362.00;;;;5017272;28;20197;-63
2023/09/07 03:20:29;;;;;;;1.20;1.20;;;;;14.10;96366.00;;;;5017301;28;20221;-64
2023/09/07 03:22:57;;;;;;;0.80;0.80;;;;;14.10;96366.00;;;;5017748;28;20185;-64
2023/09/07 03:25:25;;;;;;;0.80;0.80;;;;;14.10;96359.00;;;;5017747;28;20197;-64
2023/09/07 03:27:53;;;;;;;1.30;1.20;;;;;14.00;96360.00;;;;5017184;28;20248;-64
2023/09/07 03:30:20;;;;;;;0.90;0.90;;;;;14.00;96366.00;;;;5017881;28;20217;-65
2023/09/07 03:32:48;;;;;;;1.23;1.23;;;;;13.90;96351.00;;;;5016947;28;20228;-64
2023/09/07 03:35:15;;;;;;;0.80;0.80;;;;;13.80;96359.00;;;;5017144;28;20247;-65
2023/09/07 03:37:44;;;;;;;0.70;0.70;;;;;13.70;96361.00;;;;5017233;28;20202;-66
2023/09/07 03:40:12;;;;;;;1.43;1.40;;;;;13.60;96365.00;;;;5016914;28;20263;-64
2023/09/07 03:42:40;;;;;;;1.03;1.03;;;;;13.60;96373.00;;;;5017090;28;20209;-64
2023/09/07 03:45:08;;;;;;;1.10;1.00;;;;;13.50;96367.00;;;;5017413;28;20197;-64
2023/09/07 03:47:35;;;;;;;1.83;0.87;;;;;13.40;96362.00;;;;5017402;28;20554;-64
2023/09/07 03:50:03;;;;;;;1.07;1.00;;;;;13.20;96359.00;;;;5016749;28;20300;-65
2023/09/07 03:52:30;;;;;;;1.00;1.00;;;;;13.20;96369.00;;;;5016714;28;20228;-64
2023/09/07 03:54:58;;;;;;;0.73;0.73;;;;;13.30;96362.00;;;;5016819;28;20197;-64
2023/09/07 03:57:28;;;;;;;1.00;1.00;;;;;13.30;96364.00;;;;5017056;28;20280;-64
2023/09/07 03:59:55;;;;;;;0.80;0.80;;;;;13.40;96356.00;;;;5016636;28;20700;-63
2023/09/07 04:02:23;;;;;;;0.90;0.90;;;;;13.30;96359.00;;;;5016461;28;20185;-63
2023/09/07 04:04:50;;;;;;;1.00;1.00;;;;;13.40;96361.00;;;;5016304;28;20189;-64
2023/09/07 04:07:18;;;;;;;1.27;1.23;;;;;13.30;96358.00;;;;5016684;28;20219;-64
2023/09/07 04:09:46;;;;;;;1.00;1.00;;;;;13.30;96354.00;;;;5016344;28;20204;-64
2023/09/07 04:12:14;;;;;;;1.37;1.33;;;;;13.30;96355.00;;;;5016425;28;20279;-64
2023/09/07 04:14:42;;;;;;;0.90;0.90;;;;;13.30;96353.00;;;;5016151;28;20198;-64
2023/09/07 04:17:10;;;;;;;1.20;1.10;;;;;13.30;96353.00;;;;5016130;28;20189;-64
2023/09/07 04:19:37;;;;;;;1.80;1.23;;;;;13.30;96357.00;;;;5016360;28;20540;-64
2023/09/07 04:22:05;;;;;;;3.03;1.77;;;;;13.50;96363.00;;;;5016216;28;20240;-64
2023/09/07 04:24:32;;;;;;;1.30;1.20;;;;;13.60;96353.00;;;;5016542;28;20205;-64
2023/09/07 04:27:01;;;;;;;1.37;1.27;;;;;13.70;96354.00;;;;5015980;28;20256;-64
2023/09/07 04:29:29;;;;;;;1.53;1.43;;;;;13.70;96349.00;;;;5015926;28;20201;-65
2023/09/07 04:31:58;;;;;;;2.67;1.47;;;;;13.70;96350.00;;;;5015856;28;20213;-65
2023/09/07 04:34:25;;;;;;;0.60;0.60;;;;;13.70;96349.00;;;;5016143;28;20557;-64
2023/09/07 04:36:52;;;;;;;1.40;1.30;;;;;13.70;96348.00;;;;5015827;28;20198;-64
2023/09/07 04:39:20;;;;;;;0.90;0.90;;;;;13.60;96351.00;;;;5015906;28;20198;-64
2023/09/07 04:41:47;;;;;;;1.40;1.30;;;;;13.50;96348.00;;;;5014583;28;20704;-65
2023/09/07 04:44:15;;;;;;;1.43;1.43;;;;;13.50;96353.00;;;;5015640;28;20197;-64
2023/09/07 04:46:43;;;;;;;1.00;1.00;;;;;13.50;96345.00;;;;5015520;28;20193;-64
2023/09/07 04:49:11;;;;;;;0.90;0.90;;;;;13.40;96340.00;;;;5015620;28;20193;-64
2023/09/07 04:51:39;;;;;;;0.80;0.80;;;;;13.60;96345.00;;;;5015414;28;20718;-64
2023/09/07 04:54:06;;;;;;;1.27;1.17;;;;;13.50;96346.00;;;;5015332;28;20224;-65
2023/09/07 04:56:34;;;;;;;1.00;1.00;;;;;13.60;96350.00;;;;5015202;28;20212;-64
2023/09/07 04:59:01;;;;;;;1.00;1.00;;;;;13.60;96357.00;;;;5014486;28;20529;-64
2023/09/07 05:01:29;;;;;;;0.93;0.93;;;;;13.70;96344.00;;;;5016034;28;20221;-64
2023/09/07 05:03:56;;;;;;;1.33;1.27;;;;;13.50;96349.00;;;;5015387;28;20684;-64
2023/09/07 05:06:26;;;;;;;0.77;0.77;;;;;13.30;96352.00;;;;5015369;28;20253;-64
2023/09/07 05:08:53;;;;;;;0.90;0.90;;;;;13.20;96356.00;;;;5015528;28;20228;-65
2023/09/07 05:11:21;;;;;;;1.00;1.00;;;;;13.10;96349.00;;;;5015075;28;20213;-64
2023/09/07 05:13:48;;;;;;;0.90;0.90;;;;;13.10;96347.00;;;;5015128;28;20217;-64
2023/09/07 05:16:15;;;;;;;1.63;0.90;;;;;13.10;96345.00;;;;5015096;28;20204;-64
2023/09/07 05:18:43;;;;;;;1.13;1.13;;;;;13.10;96342.00;;;;5015554;28;20189;-65
2023/09/07 05:21:14;;;;;;;1.07;1.07;;;;;13.10;96341.00;;;;5014913;28;20566;-64
2023/09/07 05:23:42;;;;;;;1.63;1.57;;;;;13.30;96342.00;;;;5014982;28;20197;-65
2023/09/07 05:26:10;;;;;;;1.47;1.37;;;;;13.30;96353.00;;;;5015168;28;20192;-64
2023/09/07 05:28:37;;;;;;;1.67;1.57;;;;;13.40;96353.00;;;;5014159;28;20194;-65
2023/09/07 05:31:05;;;;;;;0.83;0.83;;;;;13.40;96351.00;;;;5013458;28;20229;-64
2023/09/07 05:33:32;;;;;;;2.33;2.13;;;;;13.30;96359.00;;;;5014820;28;20221;-64
2023/09/07 05:36:01;;;;;;;1.00;1.00;;;;;13.30;96361.00;;;;5014754;28;20212;-64
2023/09/07 05:38:28;;;;;;;1.27;1.20;;;;;13.30;96358.00;;;;5015202;28;20276;-65
2023/09/07 05:40:59;;;;;;;1.47;1.37;;;;;13.30;96363.00;;;;5014719;28;20213;-65
2023/09/07 05:43:26;;;;;;;1.60;1.50;;;;;13.40;96364.00;;;;5015225;28;20181;-65
2023/09/07 05:45:54;;;;;;;2.80;2.60;;;;;13.50;96370.00;;;;5014584;28;20194;-65
2023/09/07 05:48:21;;;;;;;1.30;1.30;;;;;13.60;96376.00;;;;5014854;28;20189;-64
2023/09/07 05:50:49;;;;;;;1.33;1.33;;;;;13.60;96372.00;;;;5015027;28;20331;-64
2023/09/07 05:53:16;;;;;;;1.30;1.30;;;;;13.60;96364.00;;;;5013143;28;20217;-64
2023/09/07 05:55:44;;;;;;;1.50;1.43;;;;;13.70;96365.00;;;;5014747;28;20205;-64
2023/09/07 05:58:13;;;;;;;1.67;1.57;;;;;13.70;96369.00;;;;5013452;28;20201;-64
2023/09/07 06:00:40;;;;;;;1.40;1.30;;;;;13.70;96367.00;;;;5014611;28;20574;-64
2023/09/07 06:03:09;;;;;;;0.93;0.93;;;;;13.80;96367.00;;;;5014453;28;20200;-64
2023/09/07 06:05:38;;;;;;;1.80;1.70;;;;;13.80;96373.00;;;;5014371;28;20244;-64
2023/09/07 06:08:07;;;;;;;2.47;2.27;;;;;13.80;96300.00;;;;5014473;28;20193;-64
2023/09/07 06:10:34;;;;;;;1.03;1.03;;;;;13.90;96368.00;;;;5011353;28;20221;-64
2023/09/07 06:13:02;;;;;;;1.70;1.53;;;;;14.00;96367.00;;;;5010805;28;20224;-64
2023/09/07 06:15:31;;;;;;;2.23;1.67;;;;;14.00;96370.00;;;;5011474;28;20197;-62
2023/09/07 06:17:58;;;;;;;0.63;0.63;;;;;14.10;96372.00;;;;5012246;28;20224;-62
2023/09/07 06:20:26;;;;;;;0.87;0.87;;;;;14.20;96368.00;;;;5012488;28;20217;-63
2023/09/07 06:22:53;;;;;;;0.80;0.80;;;;;14.30;96367.00;;;;5012068;28;20190;-63
2023/09/07 06:25:22;;;;;;;1.50;1.40;;;;;14.30;96368.00;;;;5012500;28;20206;-62
2023/09/07 06:27:49;;;;;;;1.13;1.13;;;;;14.40;96364.00;;;;5011685;28;20210;-62
2023/09/07 06:30:16;;;;;;;0.87;0.87;;;;;14.40;96366.00;;;;5012243;28;20209;-62
2023/09/07 06:32:45;;;;;;;1.10;1.10;;;;;14.50;96369.00;;;;5011588;28;20247;-64
2023/09/07 06:35:12;;;;;;;0.93;0.93;;;;;14.60;96373.00;;;;5010359;28;20208;-65
2023/09/07 06:37:42;;;;;;;1.50;1.47;;;;;14.60;96368.00;;;;5012258;28;20197;-65
2023/09/07 06:40:10;;;;;;;1.30;1.30;;;;;14.70;96381.00;;;;5011858;28;20217;-65
2023/09/07 06:42:39;;;;;;;1.00;1.00;;;;;14.80;96375.00;;;;5011294;28;20189;-65
2023/09/07 06:45:09;;;;;;;1.87;1.77;;;;;14.90;96371.00;;;;5011811;28;20208;-65
2023/09/07 06:47:36;;;;;;;0.97;0.97;;;;;15.10;96371.00;;;;5011140;28;20259;-64
2023/09/07 06:50:06;;;;;;;1.27;1.27;;;;;15.10;96381.00;;;;5012125;28;20221;-65
2023/09/07 06:52:33;;;;;;;1.17;1.13;;;;;15.10;96380.00;;;;5007530;28;20205;-64
2023/09/07 06:55:01;;;;;;;1.30;1.20;;;;;15.20;96377.00;;;;5014553;28;20208;-64
2023/09/07 06:57:28;;;;;;;2.00;1.60;;;;;15.30;96379.00;;;;5011849;28;20186;-64
2023/09/07 06:59:56;;;;;;;2.30;2.10;;;;;15.40;96384.00;;;;5011570;28;20727;-64
2023/09/07 07:02:23;;;;;;;1.60;1.17;;;;;15.40;96373.00;;;;5011703;28;20660;-65
2023/09/07 07:04:51;;;;;;;1.67;1.60;;;;;15.70;96380.00;;;;5010252;28;20283;-62
2023/09/07 07:07:20;;;;;;;0.83;0.83;;;;;15.70;96373.00;;;;5012063;28;20202;-64
2023/09/07 07:09:47;;;;;;;1.07;1.07;;;;;15.80;96376.00;;;;5007834;28;20204;-64
2023/09/07 07:12:15;;;;;;;1.00;1.00;;;;;15.90;96370.00;;;;5011466;28;20759;-65
2023/09/07 07:14:42;;;;;;;1.43;1.33;;;;;16.00;96389.00;;;;5011533;28;20217;-65
2023/09/07 07:17:10;;;;;;;1.23;1.13;;;;;16.00;96381.00;;;;5011495;28;20198;-64
2023/09/07 07:19:37;;;;;;;1.77;1.67;;;;;16.20;96389.00;;;;5009467;28;20205;-64
2023/09/07 07:22:05;;;;;;;1.87;1.63;;;;;16.40;96384.00;;;;5011366;28;20680;-64
2023/09/07 07:24:34;;;;;;;1.93;1.80;;;;;16.40;96383.00;;;;5011350;28;20193;-64
2023/09/07 07:27:03;;;;;;;1.80;1.70;;;;;16.40;96382.00;;;;5011465;28;20256;-65
2023/09/07 07:29:30;;;;;;;1.13;1.13;;;;;16.50;96384.00;;;;5011587;28;20703;-64
2023/09/07 07:31:58;;;;;;;1.20;1.20;;;;;16.60;96377.00;;;;5011198;28;20696;-65
2023/09/07 07:34:25;;;;;;;1.93;1.23;;;;;16.70;96380.00;;;;5011144;28;20240;-65
2023/09/07 07:36:53;;;;;;;1.73;1.63;;;;;16.70;96372.00;;;;5010812;28;20229;-64
2023/09/07 07:39:20;;;;;;;1.27;1.20;;;;;16.80;96377.00;;;;5011329;28;20198;-64
2023/09/07 07:41:49;;;;;;;1.53;1.47;;;;;16.90;96370.00;;;;5011335;28;20218;-64
2023/09/07 07:44:16;;;;;;;1.90;1.73;;;;;17.00;96377.00;;;;5010036;28;20201;-63
2023/09/07 07:46:44;;;;;;;2.10;1.70;;;;;17.40;96374.00;;;;5010937;28;20213;-64
2023/09/07 07:49:11;;;;;;;2.83;2.40;;;;;17.50;96372.00;;;;5025806;28;20576;-64
2023/09/07 07:51:39;;;;;;;28.00;2.37;;;;;17.60;96372.00;;;;5010571;28;20245;-64
2023/09/07 07:54:06;;;;;;;1.67;1.57;;;;;17.70;96374.00;;;;5014755;28;20221;-64
2023/09/07 07:56:34;;;;;;;1.57;1.47;;;;;17.80;96371.00;;;;5014247;28;20208;-64
2023/09/07 07:59:03;;;;;;;3.37;1.77;;;;;17.80;96371.00;;;;5011452;28;20205;-64
2023/09/07 08:01:30;;;;;;;0.80;0.80;;;;;18.00;96367.00;;;;5028984;28;20225;-64
2023/09/07 08:04:04;;;;;;;1.50;1.40;;;;;18.20;96363.00;;;;5029770;28;20288;-63
2023/09/07 08:06:32;;;;;;;1.13;1.13;;;;;18.30;96361.00;;;;5015358;28;20218;-63
2023/09/07 08:08:59;;;;;;;1.03;1.03;;;;;18.60;96372.00;;;;5014098;28;20201;-63
2023/09/07 08:11:27;;;;;;;2.93;1.87;;;;;18.70;96359.00;;;;5015150;28;20225;-63
2023/09/07 08:13:55;;;;;;;0.90;0.90;;;;;18.90;96372.00;;;;5013358;28;20209;-63
2023/09/07 08:16:26;;;;;;;4.23;1.40;;;;;18.90;96355.00;;;;5030041;28;20617;-63
2023/09/07 08:18:53;;;;;;;1.10;1.10;;;;;19.10;96358.00;;;;5014396;28;20201;-63
2023/09/07 08:21:24;;;;;;;1.47;1.37;;;;;19.20;96362.00;;;;5014991;28;20252;-64
2023/09/07 08:23:52;;;;;;;0.83;0.83;;;;;19.40;96357.00;;;;5029571;28;20193;-64
2023/09/07 08:26:20;;;;;;;0.90;0.90;;;;;19.60;96355.00;;;;5014555;28;20197;-64
2023/09/07 08:28:48;;;;;;;0.80;0.80;;;;;19.80;96360.00;;;;5014263;28;20216;-64
2023/09/07 08:31:21;;;;;;;1.50;1.40;;;;;19.80;96357.00;;;;5014038;28;20592;-64
2023/09/07 08:33:51;;;;;;;1.37;1.30;;;;;20.00;96360.00;;;;5014199;28;20263;-64
2023/09/07 08:36:22;;;;;;;1.80;1.70;;;;;20.20;96365.00;;;;5013303;28;20212;-64
2023/09/07 08:38:51;;;;;;;1.67;1.57;;;;;20.30;96358.00;;;;5014296;28;20197;-64
2023/09/07 08:41:19;;;;;;;1.08;0.98;;;;;20.30;96364.00;;;;5014185;28;20622;-64
2023/09/07 08:43:47;;;;;;;0.60;0.60;;;;;20.40;96355.00;;;;5013995;28;20276;-64
2023/09/07 08:46:20;;;;;;;1.17;1.17;;;;;20.60;96351.00;;;;5013685;28;20557;-64
2023/09/07 08:48:49;;;;;;;1.27;1.17;;;;;20.80;96361.00;;;;5014111;28;20196;-64
2023/09/07 08:51:19;;;;;;;1.17;1.15;;;;;20.80;96356.00;;;;5013117;28;20588;-64
2023/09/07 08:53:47;;;;;;;0.60;0.60;;;;;20.90;96351.00;;;;5014246;28;20711;-64
2023/09/07 08:56:15;;;;;;;8.98;1.00;;;;;20.90;96358.00;;;;4987717;23;20242;-62
2023/09/07 08:58:44;;;;;;;1.38;1.27;;;;;21.10;96360.00;;;;4956681;28;20203;-61
2023/09/07 09:01:12;;;;;;;1.17;1.00;;;;;21.30;96361.00;;;;4974061;28;20765;-61
2023/09/07 09:03:40;;;;;;;1.08;1.08;;;;;21.40;96359.00;;;;4961369;28;20567;-61
2023/09/07 09:06:09;;;;;;;1.77;1.38;;;;;21.50;96357.00;;;;4967989;28;20218;-61
2023/09/07 09:08:47;;;;;;;1.77;1.48;;;;;21.50;96362.00;;;;4961200;28;20199;-62
2023/09/07 09:11:14;;;;;;;1.10;1.10;;;;;21.70;96365.00;;;;4955389;28;20995;-62
2023/09/07 09:13:42;;;;;;;0.85;0.85;;;;;21.80;96360.00;;;;4972833;28;20289;-62
2023/09/07 09:16:10;;;;;;;1.73;1.60;;;;;21.90;96356.00;;;;4973073;28;20211;-61
2023/09/07 09:18:39;;;;;;;1.60;1.50;;;;;22.00;96363.00;;;;4974458;28;20195;-61
2023/09/07 09:21:08;;;;;;;0.95;0.95;;;;;22.10;96352.00;;;;4964887;28;20310;-61
2023/09/07 09:23:37;;;;;;;0.85;0.85;;;;;22.00;96353.00;;;;4950515;28;20264;-61
2023/09/07 09:26:05;;;;;;;1.75;1.65;;;;;22.20;96356.00;;;;4955195;28;20206;-61
2023/09/07 09:28:32;;;;;;;1.05;1.05;;;;;22.40;96350.00;;;;4954270;28;20270;-62
2023/09/07 09:31:00;;;;;;;0.98;0.98;;;;;22.60;96354.00;;;;4964297;28;20223;-61
2023/09/07 09:33:30;;;;;;;1.40;1.17;;;;;22.70;96358.00;;;;4973124;28;20198;-61
2023/09/07 09:35:58;;;;;;;1.13;1.13;;;;;22.70;96346.00;;;;4974337;28;20195;-61
2023/09/07 09:38:27;;;;;;;0.80;0.80;;;;;22.80;96354.00;;;;4973655;28;20663;-62
2023/09/07 09:40:54;;;;;;;1.60;1.50;;;;;22.90;96343.00;;;;4961080;28;20215;-61
2023/09/07 09:43:22;;;;;;;1.85;1.75;;;;;22.80;96349.00;;;;4953741;28;20212;-61
2023/09/07 09:45:52;;;;;;;1.75;1.30;;;;;22.90;96348.00;;;;4964224;28;20203;-62
2023/09/07 09:48:20;;;;;;;1.67;1.48;;;;;22.90;96346.00;;;;4973648;28;20203;-61
2023/09/07 09:50:48;;;;;;;1.88;1.27;;;;;23.20;96349.00;;;;4967462;28;20673;-61
2023/09/07 09:53:18;;;;;;;2.47;1.70;;;;;23.40;96347.00;;;;4960160;28;20258;-62
2023/09/07 09:55:48;;;;;;;0.73;0.73;;;;;23.30;96339.00;;;;4954184;28;20314;-62
2023/09/07 09:58:16;;;;;;;1.70;1.60;;;;;23.40;96346.00;;;;4961160;28;20281;-62
2023/09/07 10:00:44;;;;;;;0.73;0.73;;;;;23.60;96339.00;;;;4973852;28;20618;-62
2023/09/07 10:03:23;;;;;;;0.70;0.70;;;;;23.50;96337.00;;;;4972510;28;20213;-62
2023/09/07 10:05:51;;;;;;;1.17;1.17;;;;;23.50;96339.00;;;;4973763;28;20190;-62
2023/09/07 10:08:22;;;;;;;1.00;1.00;;;;;23.80;96346.00;;;;4960614;28;20199;-62
2023/09/07 10:10:54;;;;;;;1.60;1.50;;;;;23.90;96336.00;;;;4972214;28;20578;-62
2023/09/07 10:13:33;;;;;;;2.00;1.80;;;;;24.20;96343.00;;;;4949459;28;20200;-62
2023/09/07 10:16:07;;;;;;;1.73;1.63;;;;;24.30;96342.00;;;;4954449;28;20620;-62
2023/09/07 10:18:35;;;;;;;1.10;1.00;;;;;24.40;96339.00;;;;4955137;28;20222;-62
2023/09/07 10:21:03;;;;;;;1.77;1.67;;;;;24.50;96334.00;;;;4967714;28;20218;-62
2023/09/07 10:23:39;;;;;;;1.75;1.30;;;;;24.50;96333.00;;;;4953803;28;20206;-62
2023/09/07 10:26:13;;;;;;;1.88;1.75;;;;;24.80;96327.00;;;;4957203;28;20206;-62
2023/09/07 10:28:41;;;;;;;1.27;1.23;;;;;24.90;96321.00;;;;4973236;28;20187;-62
2023/09/07 10:31:14;;;;;;;1.67;1.58;;;;;25.10;96315.00;;;;4952691;28;20302;-62
2023/09/07 10:33:41;;;;;;;1.60;1.50;;;;;25.20;96313.00;;;;4954538;28;20202;-62
2023/09/07 10:36:09;;;;;;;5.57;2.15;;;;;25.30;96307.00;;;;4972880;28;20211;-62
2023/09/07 10:38:39;;;;;;;2.03;1.92;;;;;25.40;96314.00;;;;4959434;28;20206;-62
2023/09/07 10:41:07;;;;;;;1.02;0.80;;;;;25.60;96312.00;;;;4957749;28;20655;-62
2023/09/07 10:43:35;;;;;;;1.02;1.02;;;;;25.60;96314.00;;;;4959031;28;20198;-62
2023/09/07 10:46:03;;;;;;;1.77;1.67;;;;;25.90;96299.00;;;;4973286;28;20195;-62
2023/09/07 10:48:31;;;;;;;1.02;1.02;;;;;26.20;96305.00;;;;4972933;28;20681;-62
2023/09/07 10:50:59;;;;;;;1.10;1.10;;;;;26.20;96302.00;;;;4972350;28;20694;-62
2023/09/07 10:53:28;;;;;;;1.27;1.25;;;;;25.80;96300.00;;;;4966513;28;20226;-62
2023/09/07 10:55:58;;;;;;;1.60;1.50;;;;;26.10;96306.00;;;;4953019;28;20305;-62
2023/09/07 10:58:28;;;;;;;1.20;1.20;;;;;26.40;96299.00;;;;4953724;28;20218;-62
2023/09/07 11:00:56;;;;;;;2.35;2.15;;;;;26.40;96295.00;;;;4955509;28;20250;-61
2023/09/07 11:03:25;;;;;;;1.88;1.77;;;;;26.70;96297.00;;;;4972558;28;20269;-61
2023/09/07 11:05:54;;;;;;;1.33;1.27;;;;;26.80;96295.00;;;;4972306;28;20214;-61
2023/09/07 11:08:22;;;;;;;3.03;1.70;;;;;26.90;96295.00;;;;4972922;28;20229;-61
2023/09/07 11:10:52;;;;;;;1.35;1.25;;;;;26.60;96290.00;;;;4970842;28;20226;-61
2023/09/07 11:13:19;;;;;;;1.25;1.25;;;;;27.00;96293.00;;;;4972799;28;20561;-62
2023/09/07 11:15:48;;;;;;;1.60;1.50;;;;;27.10;96299.00;;;;4971921;28;20215;-62
2023/09/07 11:18:20;;;;;;;1.08;1.08;;;;;27.20;96289.00;;;;4972707;28;20198;-62
2023/09/07 11:20:47;;;;;;;1.05;1.05;;;;;27.20;96292.00;;;;4951808;28;20226;-62
2023/09/07 11:23:14;;;;;;;1.77;1.65;;;;;27.40;96292.00;;;;4952981;28;20211;-61
2023/09/07 11:25:42;;;;;;;2.22;1.52;;;;;27.30;96296.00;;;;4953188;28;20200;-61
2023/09/07 11:28:11;;;;;;;1.67;1.42;;;;;27.50;96290.00;;;;4955454;28;20203;-61
2023/09/07 11:30:49;;;;;;;1.08;1.08;;;;;27.60;96288.00;;;;4957198;28;20299;-61
2023/09/07 11:33:18;;;;;;;2.00;1.85;;;;;27.80;96297.00;;;;4963754;28;20195;-61
2023/09/07 11:35:45;;;;;;;1.30;1.27;;;;;27.70;96294.00;;;;4976066;28;20707;-62
2023/09/07 11:38:15;;;;;;;1.35;1.30;;;;;27.60;96295.00;;;;4976028;28;20206;-61
2023/09/07 11:40:44;;;;;;;1.15;1.10;;;;;27.90;96293.00;;;;4973810;28;20289;-61
2023/09/07 11:43:12;;;;;;;1.48;1.38;;;;;28.20;96293.00;;;;4969230;28;20286;-62
2023/09/07 11:45:40;;;;;;;1.23;1.23;;;;;28.00;96300.00;;;;4971732;28;20198;-62
2023/09/07 11:48:08;;;;;;;1.75;1.65;;;;;28.20;96291.00;;;;4958778;28;20199;-61
2023/09/07 11:50:38;;;;;;;1.55;1.45;;;;;28.10;96293.00;;;;4973418;28;20800;-61
2023/09/07 11:53:06;;;;;;;1.08;1.08;;;;;28.00;96292.00;;;;4975894;28;20273;-61
2023/09/07 11:55:34;;;;;;;1.48;1.38;;;;;28.20;96294.00;;;;4975401;28;20227;-61
2023/09/07 11:58:02;;;;;;;3.47;1.65;;;;;28.40;96287.00;;;;4975986;28;20294;-61
2023/09/07 12:00:31;;;;;;;1.52;1.48;;;;;28.00;96290.00;;;;4962518;28;20227;-61
2023/09/07 12:02:58;;;;;;;1.40;1.30;;;;;28.30;96292.00;;;;4955711;28;20211;-62
2023/09/07 12:05:26;;;;;;;1.42;1.35;;;;;28.30;96289.00;;;;4957858;28;20192;-62
2023/09/07 12:07:54;;;;;;;2.03;1.80;;;;;28.60;96286.00;;;;4966479;28;20206;-62
2023/09/07 12:10:22;;;;;;;1.83;1.73;;;;;28.70;96289.00;;;;4955648;28;20780;-62
2023/09/07 12:12:49;;;;;;;1.10;1.10;;;;;28.60;96289.00;;;;4965192;28;20198;-62
2023/09/07 12:15:17;;;;;;;2.03;1.60;;;;;28.50;96288.00;;;;4975268;28;20225;-62
2023/09/07 12:17:44;;;;;;;1.00;1.00;;;;;28.60;96289.00;;;;4975325;28;20681;-62
2023/09/07 12:20:14;;;;;;;1.73;1.55;;;;;29.10;96289.00;;;;4974275;28;20226;-62
2023/09/07 12:22:41;;;;;;;1.38;1.27;;;;;29.10;96286.00;;;;4971563;28;20203;-62